createdAt,value
2018-02-25T00:02:18.726Z,72.75
2018-02-25T00:04:46.761Z,72.02
2018-02-25T00:07:14.794Z,71.77
2018-02-25T00:09:42.737Z,71.03
2018-02-25T00:12:10.693Z,71.37
2018-02-25T00:14:38.666Z,70.42
2018-02-25T00:17:06.592Z,68.71
2018-02-25T00:19:34.591Z,69.53
2018-02-25T00:22:02.532Z,70.42
2018-02-25T00:24:30.542Z,69.67
2018-02-25T00:26:58.694Z,69.30
2018-02-25T00:29:26.641Z,70.87
2018-02-25T00:31:54.598Z,70.86
2018-02-25T00:34:22.867Z,69.29
2018-02-25T00:36:50.820Z,67.98
2018-02-25T00:39:18.803Z,68.13
2018-02-25T00:41:46.719Z,67.76
2018-02-25T00:44:14.746Z,65.87
2018-02-25T00:46:42.691Z,65.53
2018-02-25T00:49:10.617Z,66.17
2018-02-25T00:51:38.626Z,67.73
2018-02-25T00:54:06.671Z,65.78
2018-02-25T00:56:34.706Z,64.23
2018-02-25T00:59:02.663Z,64.89
2018-02-25T01:01:30.686Z,65.00
2018-02-25T01:03:58.653Z,63.50
2018-02-25T01:06:26.590Z,62.77
2018-02-25T01:08:54.543Z,64.20
2018-02-25T01:11:22.517Z,64.58
2018-02-25T01:13:50.442Z,63.78
2018-02-25T01:16:18.356Z,62.95
2018-02-25T01:18:46.298Z,62.37
2018-02-25T01:21:14.290Z,61.65
2018-02-25T01:23:42.267Z,61.80
2018-02-25T01:26:10.293Z,62.09
2018-02-25T01:28:38.355Z,62.21
2018-02-25T01:31:06.327Z,62.08
2018-02-25T01:33:34.361Z,62.72
2018-02-25T01:36:02.379Z,63.31
2018-02-25T01:38:30.365Z,62.18
2018-02-25T01:40:58.309Z,60.09
2018-02-25T01:43:26.234Z,60.40
2018-02-25T01:45:54.261Z,61.89
2018-02-25T01:48:22.230Z,61.97
2018-02-25T01:51:01.913Z,62.06
2018-02-25T01:53:29.827Z,62.43
2018-02-25T01:55:57.786Z,62.08
2018-02-25T01:58:25.977Z,62.11
2018-02-25T02:00:53.978Z,62.09
2018-02-25T02:03:21.902Z,62.01
2018-02-25T02:05:49.944Z,62.22
2018-02-25T02:08:17.946Z,62.25
2018-02-25T02:10:45.855Z,62.42
2018-02-25T02:13:13.749Z,62.37
2018-02-25T02:15:41.748Z,61.89
2018-02-25T02:18:09.765Z,62.44
2018-02-25T02:20:37.738Z,62.34
2018-02-25T02:23:05.765Z,62.37
2018-02-25T02:25:33.741Z,61.81
2018-02-25T02:28:01.697Z,61.34
2018-02-25T02:30:29.671Z,62.69
2018-02-25T02:32:57.705Z,62.54
2018-02-25T02:35:25.664Z,63.37
2018-02-25T02:37:54.299Z,62.81
2018-02-25T02:40:22.291Z,61.69
2018-02-25T02:42:50.239Z,61.64
2018-02-25T02:45:18.230Z,61.66
2018-02-25T02:47:46.148Z,61.09
2018-02-25T02:50:14.102Z,61.99
2018-02-25T02:52:42.089Z,64.50
2018-02-25T02:55:10.035Z,63.74
2018-02-25T02:57:38.044Z,62.92
2018-02-25T03:00:05.993Z,61.83
2018-02-25T03:02:33.979Z,63.56
2018-02-25T03:05:02.035Z,62.80
2018-02-25T03:07:30.016Z,62.67
2018-02-25T03:09:58.021Z,63.25
2018-02-25T03:12:25.954Z,62.57
2018-02-25T03:14:53.931Z,63.72
2018-02-25T03:17:21.838Z,63.16
2018-02-25T03:19:49.867Z,63.05
2018-02-25T03:22:17.846Z,63.29
2018-02-25T03:24:45.766Z,63.23
2018-02-25T03:27:13.764Z,62.80
2018-02-25T03:29:41.776Z,61.95
2018-02-25T03:32:09.728Z,62.57
2018-02-25T03:34:37.662Z,64.11
2018-02-25T03:37:05.765Z,63.51
2018-02-25T03:39:34.141Z,63.00
2018-02-25T03:42:02.154Z,62.67
2018-02-25T03:44:30.098Z,62.12
2018-02-25T03:46:58.112Z,62.10
2018-02-25T03:49:26.047Z,63.01
2018-02-25T03:51:54.046Z,62.83
2018-02-25T03:54:21.955Z,63.69
2018-02-25T03:56:49.939Z,63.86
2018-02-25T03:59:17.899Z,63.52
2018-02-25T04:01:45.826Z,63.26
2018-02-25T04:04:13.743Z,63.34
2018-02-25T04:06:41.621Z,63.26
2018-02-25T04:09:09.555Z,63.29
2018-02-25T04:11:37.618Z,64.05
2018-02-25T04:14:05.561Z,64.24
2018-02-25T04:16:33.487Z,62.93
2018-02-25T04:19:01.482Z,62.35
2018-02-25T04:21:29.488Z,62.60
2018-02-25T04:23:57.438Z,63.08
2018-02-25T04:26:25.376Z,63.35
2018-02-25T04:28:53.322Z,63.76
2018-02-25T04:31:21.350Z,63.17
2018-02-25T04:33:49.284Z,62.23
2018-02-25T04:36:17.404Z,62.76
2018-02-25T04:38:45.317Z,61.36
2018-02-25T04:41:13.637Z,61.64
2018-02-25T04:43:41.586Z,62.60
2018-02-25T04:46:09.621Z,62.27
2018-02-25T04:48:37.623Z,60.24
2018-02-25T04:51:05.681Z,62.06
2018-02-25T04:53:33.708Z,61.95
2018-02-25T04:56:01.714Z,60.45
2018-02-25T04:58:29.694Z,61.10
2018-02-25T05:00:57.589Z,61.78
2018-02-25T05:03:25.608Z,62.22
2018-02-25T05:05:53.535Z,64.27
2018-02-25T05:08:21.490Z,64.31
2018-02-25T05:10:49.393Z,63.18
2018-02-25T05:13:17.405Z,62.24
2018-02-25T05:15:45.383Z,63.25
2018-02-25T05:18:13.371Z,62.04
2018-02-25T05:20:41.397Z,63.21
2018-02-25T05:23:09.367Z,65.59
2018-02-25T05:25:37.357Z,62.27
2018-02-25T05:28:05.291Z,59.91
2018-02-25T05:30:33.289Z,61.58
2018-02-25T05:33:01.223Z,61.23
2018-02-25T05:35:29.222Z,60.75
2018-02-25T05:37:57.295Z,60.38
2018-02-25T05:40:25.253Z,60.53
2018-02-25T05:42:53.666Z,61.88
2018-02-25T05:45:21.616Z,61.67
2018-02-25T05:47:49.542Z,62.48
2018-02-25T05:50:17.515Z,62.90
2018-02-25T05:52:45.470Z,62.21
2018-02-25T05:55:13.473Z,61.56
2018-02-25T05:57:41.542Z,60.81
2018-02-25T06:00:09.511Z,59.32
2018-02-25T06:02:37.463Z,60.24
2018-02-25T06:05:05.364Z,59.76
2018-02-25T06:07:33.288Z,60.35
2018-02-25T06:10:01.222Z,60.81
2018-02-25T06:12:29.173Z,61.36
2018-02-25T06:14:57.157Z,61.44
2018-02-25T06:17:25.109Z,62.68
2018-02-25T06:19:53.153Z,62.02
2018-02-25T06:22:21.110Z,61.13
2018-02-25T06:24:49.046Z,61.63
2018-02-25T06:27:17.022Z,63.12
2018-02-25T06:29:45.109Z,63.37
2018-02-25T06:32:13.151Z,62.70
2018-02-25T06:34:41.157Z,60.82
2018-02-25T06:37:09.212Z,58.60
2018-02-25T06:39:37.171Z,61.64
2018-02-25T06:42:05.148Z,64.05
2018-02-25T06:44:33.502Z,65.70
2018-02-25T06:47:01.518Z,65.84
2018-02-25T06:49:29.501Z,66.74
2018-02-25T06:51:57.412Z,65.47
2018-02-25T06:54:25.430Z,63.80
2018-02-25T06:56:53.396Z,62.48
2018-02-25T06:59:21.326Z,60.82
2018-02-25T07:01:50.201Z,61.27
2018-02-25T07:04:18.162Z,62.57
2018-02-25T07:06:46.151Z,61.63
2018-02-25T07:09:14.153Z,61.72
2018-02-25T07:11:42.106Z,62.08
2018-02-25T07:14:10.054Z,62.90
2018-02-25T07:16:38.028Z,62.83
2018-02-25T07:19:06.105Z,62.80
2018-02-25T07:21:34.007Z,62.30
2018-02-25T07:24:01.973Z,62.71
2018-02-25T07:26:29.935Z,64.79
2018-02-25T07:28:58.798Z,64.07
2018-02-25T07:31:26.770Z,63.55
2018-02-25T07:33:54.738Z,64.48
2018-02-25T07:36:22.736Z,64.26
2018-02-25T07:38:50.641Z,66.41
2018-02-25T07:41:18.582Z,65.29
2018-02-25T07:43:46.481Z,66.19
2018-02-25T07:46:14.750Z,64.21
2018-02-25T07:48:42.682Z,62.99
2018-02-25T07:51:10.637Z,64.94
2018-02-25T07:53:38.642Z,66.36
2018-02-25T07:56:06.588Z,68.21
2018-02-25T07:58:34.591Z,68.28
2018-02-25T08:01:02.507Z,69.66
2018-02-25T08:03:30.525Z,69.48
2018-02-25T08:05:58.533Z,70.16
2018-02-25T08:08:26.494Z,69.21
2018-02-25T08:10:54.587Z,70.58
2018-02-25T08:13:22.545Z,70.67
2018-02-25T08:15:50.622Z,71.00
2018-02-25T08:18:18.627Z,71.06
2018-02-25T08:20:46.559Z,71.21
2018-02-25T08:23:14.526Z,70.46
2018-02-25T08:25:42.465Z,70.82
2018-02-25T08:28:10.430Z,71.75
2018-02-25T08:30:38.438Z,70.53
2018-02-25T08:33:06.400Z,71.04
2018-02-25T08:35:34.539Z,72.94
2018-02-25T08:38:03.147Z,71.66
2018-02-25T08:40:31.099Z,71.07
2018-02-25T08:42:59.233Z,70.38
2018-02-25T08:45:27.192Z,71.33
2018-02-25T08:47:55.613Z,71.03
2018-02-25T08:50:23.591Z,69.61
2018-02-25T08:52:51.566Z,70.08
2018-02-25T08:55:19.518Z,69.42
2018-02-25T08:57:47.491Z,68.91
2018-02-25T09:00:15.453Z,69.23
2018-02-25T09:02:43.387Z,70.36
2018-02-25T09:05:11.936Z,71.32
2018-02-25T09:07:39.874Z,71.52
2018-02-25T09:10:08.028Z,71.10
2018-02-25T09:12:36.002Z,71.20
2018-02-25T09:15:03.973Z,70.90
2018-02-25T09:17:31.947Z,72.06
2018-02-25T09:19:59.870Z,73.00
2018-02-25T09:22:27.905Z,72.16
2018-02-25T09:24:55.850Z,73.12
2018-02-25T09:27:24.500Z,72.67
2018-02-25T09:29:52.479Z,72.41
2018-02-25T09:32:20.470Z,71.38
2018-02-25T09:34:48.506Z,71.20
2018-02-25T09:37:16.454Z,70.62
2018-02-25T09:39:44.453Z,70.65
2018-02-25T09:42:12.364Z,69.45
2018-02-25T09:44:40.283Z,69.34
2018-02-25T09:47:08.234Z,66.89
2018-02-25T09:49:36.455Z,66.39
2018-02-25T09:52:04.430Z,66.85
2018-02-25T09:54:32.345Z,67.63
2018-02-25T09:57:00.524Z,66.56
2018-02-25T09:59:32.443Z,65.47
2018-02-25T10:02:00.474Z,64.71
2018-02-25T10:04:28.397Z,64.26
2018-02-25T10:06:56.413Z,65.14
2018-02-25T10:09:24.397Z,64.35
2018-02-25T10:11:52.341Z,64.60
2018-02-25T10:14:20.352Z,64.27
2018-02-25T10:16:48.306Z,64.78
2018-02-25T10:19:16.255Z,65.22
2018-02-25T10:21:44.382Z,65.89
2018-02-25T10:24:12.417Z,65.84
2018-02-25T10:26:40.352Z,66.27
2018-02-25T10:29:08.305Z,65.62
2018-02-25T10:31:36.273Z,66.32
2018-02-25T10:34:04.251Z,65.71
2018-02-25T10:36:32.266Z,67.48
2018-02-25T10:39:00.480Z,67.82
2018-02-25T10:41:28.495Z,66.95
2018-02-25T10:43:56.443Z,67.37
2018-02-25T10:46:24.380Z,68.05
2018-02-25T10:48:52.342Z,67.56
2018-02-25T10:51:20.696Z,66.93
2018-02-25T10:53:48.665Z,68.05
2018-02-25T10:56:16.650Z,68.04
2018-02-25T10:58:44.639Z,68.22
2018-02-25T11:01:12.602Z,67.40
2018-02-25T11:03:40.546Z,67.18
2018-02-25T11:06:08.466Z,67.24
2018-02-25T11:08:36.385Z,70.17
2018-02-25T11:11:04.359Z,72.01
2018-02-25T11:13:32.689Z,71.91
2018-02-25T11:16:00.701Z,71.62
2018-02-25T11:18:28.717Z,70.79
2018-02-25T11:20:56.686Z,70.87
2018-02-25T11:23:24.729Z,71.04
2018-02-25T11:25:52.652Z,71.45
2018-02-25T11:28:20.544Z,71.57
2018-02-25T11:30:48.476Z,71.37
2018-02-25T11:33:16.441Z,70.43
2018-02-25T11:35:44.438Z,69.33
2018-02-25T11:38:12.424Z,70.63
2018-02-25T11:40:40.364Z,70.28
2018-02-25T11:43:08.286Z,70.33
2018-02-25T11:45:36.302Z,69.99
2018-02-25T11:48:04.311Z,69.03
2018-02-25T11:50:32.258Z,70.67
2018-02-25T11:53:00.639Z,70.82
2018-02-25T11:55:28.581Z,70.95
2018-02-25T11:57:56.569Z,70.86
2018-02-25T12:00:24.493Z,70.97
2018-02-25T12:02:52.405Z,70.79
2018-02-25T12:05:20.369Z,71.88
2018-02-25T12:07:48.439Z,71.74
2018-02-25T12:10:16.410Z,71.79
2018-02-25T12:12:44.406Z,71.22
2018-02-25T12:15:12.428Z,72.25
2018-02-25T12:17:40.410Z,71.92
2018-02-25T12:20:08.317Z,71.23
2018-02-25T12:22:36.272Z,70.84
2018-02-25T12:25:04.270Z,72.13
2018-02-25T12:27:32.229Z,71.01
2018-02-25T12:30:00.155Z,71.08
2018-02-25T12:32:28.138Z,70.99
2018-02-25T12:34:56.032Z,71.21
2018-02-25T12:37:23.982Z,71.68
2018-02-25T12:39:51.965Z,72.50
2018-02-25T12:42:19.918Z,71.81
2018-02-25T12:44:47.867Z,71.52
2018-02-25T12:47:17.220Z,71.77
2018-02-25T12:49:50.776Z,71.51
2018-02-25T12:55:06.523Z,70.96
2018-02-25T12:57:41.452Z,70.51
2018-02-25T13:00:18.827Z,69.70
2018-02-25T13:02:53.921Z,71.15
2018-02-25T13:05:24.938Z,71.07
2018-02-25T13:07:54.728Z,71.31
2018-02-25T13:12:57.350Z,70.39
2018-02-25T13:15:26.763Z,70.99
2018-02-25T13:17:55.106Z,70.62
2018-02-25T13:20:25.396Z,69.72
2018-02-25T13:22:55.145Z,69.30
2018-02-25T13:45:18.468Z,69.74
2018-02-25T13:47:46.435Z,68.85
2018-02-25T13:50:14.353Z,69.24
2018-02-25T13:52:42.234Z,69.11
2018-02-25T13:55:10.519Z,69.26
2018-02-25T13:57:38.495Z,69.41
2018-02-25T14:00:06.438Z,69.42
2018-02-25T14:02:34.422Z,69.75
2018-02-25T14:05:02.406Z,69.73
2018-02-25T14:07:30.330Z,70.45
2018-02-25T14:09:58.282Z,70.94
2018-02-25T14:12:26.206Z,71.49
2018-02-25T14:14:54.193Z,71.06
2018-02-25T14:17:22.141Z,70.88
2018-02-25T14:19:50.118Z,70.87
2018-02-25T14:22:18.033Z,69.60
2018-02-25T14:24:46.007Z,70.00
2018-02-25T14:27:13.963Z,69.43
2018-02-25T14:29:41.898Z,69.91
2018-02-25T14:32:09.867Z,70.64
2018-02-25T14:34:37.863Z,70.90
2018-02-25T14:37:05.980Z,71.54
2018-02-25T14:39:37.174Z,71.58
2018-02-25T14:42:05.795Z,72.29
2018-02-25T14:44:35.914Z,71.13
2018-02-25T14:47:04.728Z,70.57
2018-02-25T14:49:33.908Z,70.93
2018-02-25T14:52:03.856Z,70.59
2018-02-25T14:54:31.828Z,71.12
2018-02-25T14:57:00.045Z,71.84
2018-02-25T14:59:28.001Z,72.24
2018-02-25T15:01:55.970Z,72.36
2018-02-25T15:04:23.983Z,73.13
2018-02-25T15:06:51.970Z,73.27
2018-02-25T15:09:19.890Z,71.59
2018-02-25T15:11:47.862Z,72.27
2018-02-25T15:14:15.846Z,73.48
2018-02-25T15:16:43.818Z,73.78
2018-02-25T15:19:11.760Z,72.02
2018-02-25T15:21:39.702Z,72.41
2018-02-25T15:24:07.690Z,71.78
2018-02-25T15:26:35.602Z,69.95
2018-02-25T15:29:03.614Z,71.59
2018-02-25T15:31:31.557Z,72.69
2018-02-25T15:33:59.551Z,73.47
2018-02-25T15:36:27.601Z,72.24
2018-02-25T15:38:55.634Z,72.71
2018-02-25T15:41:23.621Z,72.53
2018-02-25T15:43:51.595Z,72.06
2018-02-25T15:46:19.599Z,72.40
2018-02-25T15:48:47.537Z,72.97
2018-02-25T15:51:15.470Z,72.96
2018-02-25T15:53:44.483Z,72.04
2018-02-25T15:56:12.406Z,72.80
2018-02-25T15:58:40.648Z,71.91
2018-02-25T16:01:08.561Z,72.87
2018-02-25T16:03:36.502Z,74.76
2018-02-25T16:06:04.442Z,75.24
2018-02-25T16:08:32.411Z,75.14
2018-02-25T16:11:00.407Z,76.09
2018-02-25T16:13:28.358Z,76.58
2018-02-25T16:15:56.335Z,75.59
2018-02-25T16:18:25.119Z,76.03
2018-02-25T16:20:54.147Z,76.44
2018-02-25T16:23:22.139Z,75.95
2018-02-25T16:25:50.046Z,75.75
2018-02-25T16:28:18.062Z,76.62
2018-02-25T16:30:45.955Z,77.27
2018-02-25T16:33:13.871Z,77.08
2018-02-25T16:35:41.827Z,77.93
2018-02-25T16:38:09.803Z,77.83
2018-02-25T16:40:37.739Z,77.37
2018-02-25T16:43:05.764Z,77.50
2018-02-25T16:45:33.802Z,78.13
2018-02-25T16:48:01.751Z,77.84
2018-02-25T16:50:30.512Z,78.34
2018-02-25T16:52:58.568Z,78.17
2018-02-25T16:55:26.562Z,77.58
2018-02-25T16:57:54.488Z,77.41
2018-02-25T17:00:22.993Z,77.54
2018-02-25T17:02:51.031Z,78.49
2018-02-25T17:05:18.982Z,78.54
2018-02-25T17:07:47.006Z,77.23
2018-02-25T17:10:15.003Z,76.51
2018-02-25T17:12:42.942Z,77.95
2018-02-25T17:15:10.934Z,76.66
2018-02-25T17:17:38.878Z,77.38
2018-02-25T17:20:06.975Z,77.69
2018-02-25T17:22:34.923Z,76.98
2018-02-25T17:25:02.882Z,74.91
2018-02-25T17:27:30.869Z,76.79
2018-02-25T17:29:58.895Z,77.55
2018-02-25T17:32:26.842Z,78.92
2018-02-25T17:34:54.856Z,78.95
2018-02-25T17:37:22.822Z,78.46
2018-02-25T17:39:50.897Z,77.40
2018-02-25T17:42:18.843Z,76.87
2018-02-25T17:44:46.770Z,77.31
2018-02-25T17:47:14.781Z,77.01
2018-02-25T17:49:42.765Z,77.15
2018-02-25T17:52:10.746Z,78.16
2018-02-25T17:54:38.706Z,77.19
2018-02-25T17:57:06.635Z,76.98
2018-02-25T17:59:34.631Z,77.27
2018-02-25T18:02:02.937Z,77.87
2018-02-25T18:04:30.827Z,77.26
2018-02-25T18:06:58.801Z,76.39
2018-02-25T18:09:26.900Z,74.65
2018-02-25T18:11:54.885Z,74.02
2018-02-25T18:14:22.808Z,75.27
2018-02-25T18:16:50.783Z,75.63
2018-02-25T18:19:18.761Z,75.12
2018-02-25T18:21:46.735Z,74.12
2018-02-25T18:24:14.672Z,72.33
2018-02-25T18:26:42.678Z,72.97
2018-02-25T18:29:10.619Z,72.85
2018-02-25T18:31:38.618Z,73.02
2018-02-25T18:34:06.670Z,71.85
2018-02-25T18:36:34.574Z,71.69
2018-02-25T18:39:02.544Z,73.04
2018-02-25T18:41:30.595Z,73.38
2018-02-25T18:43:58.499Z,72.77
2018-02-25T18:46:26.449Z,71.53
2018-02-25T18:48:54.425Z,70.88
2018-02-25T18:51:22.327Z,73.13
2018-02-25T18:53:50.382Z,73.64
2018-02-25T18:56:18.374Z,72.14
2018-02-25T18:58:46.374Z,72.97
2018-02-25T19:01:14.325Z,73.51
2018-02-25T19:03:42.651Z,72.73
2018-02-25T19:06:10.684Z,72.40
2018-02-25T19:08:38.657Z,72.31
2018-02-25T19:11:06.646Z,73.67
2018-02-25T19:13:34.619Z,73.33
2018-02-25T19:16:02.558Z,72.96
2018-02-25T19:18:30.651Z,74.19
2018-02-25T19:20:58.698Z,73.35
2018-02-25T19:23:26.670Z,74.29
2018-02-25T19:25:54.692Z,73.20
2018-02-25T19:28:22.647Z,73.42
2018-02-25T19:30:50.566Z,73.68
2018-02-25T19:33:18.587Z,72.60
2018-02-25T19:35:51.882Z,72.43
2018-02-25T19:41:31.615Z,73.04
2018-02-25T19:43:59.514Z,72.59
2018-02-25T19:46:27.465Z,73.83
2018-02-25T19:48:56.329Z,73.39
2018-02-25T19:51:24.371Z,72.21
2018-02-25T19:53:52.266Z,72.04
2018-02-25T19:56:20.213Z,72.74
2018-02-25T19:58:48.105Z,72.03
2018-02-25T20:01:16.002Z,70.11
2018-02-25T20:03:44.307Z,69.68
2018-02-25T20:06:13.108Z,67.27
2018-02-25T20:08:41.135Z,66.84
2018-02-25T20:11:09.107Z,66.52
2018-02-25T20:13:37.094Z,66.68
2018-02-25T20:16:05.038Z,66.80
2018-02-25T20:18:33.035Z,66.85
2018-02-25T20:21:01.011Z,66.94
2018-02-25T20:23:28.957Z,67.47
2018-02-25T20:25:56.917Z,65.87
2018-02-25T20:28:24.914Z,64.64
2018-02-25T20:30:52.845Z,65.55
2018-02-25T20:33:20.814Z,65.93
2018-02-25T20:35:48.737Z,65.87
2018-02-25T20:38:16.683Z,66.09
2018-02-25T20:40:44.630Z,65.55
2018-02-25T20:43:12.614Z,67.15
2018-02-25T20:45:40.602Z,66.58
2018-02-25T20:48:08.557Z,66.92
2018-02-25T20:50:36.527Z,66.77
2018-02-25T20:53:04.425Z,66.35
2018-02-25T20:55:32.414Z,66.07
2018-02-25T20:58:00.354Z,67.37
2018-02-25T21:00:28.326Z,66.72
2018-02-25T21:02:56.266Z,66.47
2018-02-25T21:05:24.614Z,67.58
2018-02-25T21:07:52.619Z,66.65
2018-02-25T21:10:20.573Z,66.78
2018-02-25T21:12:48.470Z,66.22
2018-02-25T21:15:16.382Z,65.42
2018-02-25T21:17:44.327Z,64.45
2018-02-25T21:20:12.170Z,64.74
2018-02-25T21:22:40.267Z,64.32
2018-02-25T21:25:08.310Z,63.88
2018-02-25T21:27:36.232Z,63.93
2018-02-25T21:30:04.210Z,64.81
2018-02-25T21:32:32.171Z,64.98
2018-02-25T21:35:00.163Z,65.16
2018-02-25T21:37:28.064Z,64.68
2018-02-25T21:39:56.093Z,64.42
2018-02-25T21:42:24.098Z,66.51
2018-02-25T21:44:52.082Z,67.18
2018-02-25T21:47:20.005Z,66.68
2018-02-25T21:49:48.001Z,67.37
2018-02-25T21:52:16.018Z,66.74
2018-02-25T21:54:49.525Z,68.28
2018-02-25T21:57:23.002Z,66.54
2018-02-25T21:59:56.567Z,65.44
2018-02-25T22:02:30.155Z,65.71
2018-02-25T22:04:58.098Z,65.65
2018-02-25T22:07:27.019Z,64.52
2018-02-25T22:09:54.937Z,64.53
2018-02-25T22:12:22.891Z,66.24
2018-02-25T22:14:50.794Z,64.72
2018-02-25T22:17:18.729Z,64.33
2018-02-25T22:19:46.662Z,64.94
2018-02-25T22:22:14.602Z,64.50
2018-02-25T22:24:42.565Z,64.37
2018-02-25T22:27:10.463Z,64.68
2018-02-25T22:29:38.398Z,64.40
2018-02-25T22:32:06.389Z,63.47
2018-02-25T22:34:34.342Z,63.59
2018-02-25T22:37:02.247Z,63.03
2018-02-25T22:39:30.760Z,63.15
2018-02-25T22:41:58.960Z,63.29
2018-02-25T22:44:27.712Z,63.35
2018-02-25T22:46:56.157Z,63.28
2018-02-25T22:49:24.470Z,63.10
2018-02-25T22:51:53.059Z,63.01
2018-02-25T22:54:21.539Z,63.56
2018-02-25T22:56:49.910Z,63.86
2018-02-25T22:59:18.065Z,63.95
2018-02-25T23:01:46.873Z,65.06
2018-02-25T23:04:15.562Z,65.98
2018-02-25T23:06:43.729Z,64.34
2018-02-25T23:09:12.722Z,63.58
2018-02-25T23:11:41.205Z,63.31
2018-02-25T23:14:09.762Z,63.93
2018-02-25T23:16:38.165Z,63.99
2018-02-25T23:19:06.631Z,63.28
2018-02-25T23:21:34.906Z,62.56
2018-02-25T23:24:03.403Z,62.01
2018-02-25T23:26:31.787Z,62.87
2018-02-25T23:29:00.269Z,63.22
2018-02-25T23:31:28.640Z,63.13
2018-02-25T23:33:57.118Z,63.44
2018-02-25T23:36:25.497Z,64.90
2018-02-25T23:38:54.182Z,64.18
2018-02-25T23:41:22.361Z,63.66
2018-02-25T23:43:50.743Z,63.17
2018-02-25T23:46:19.221Z,62.54
2018-02-25T23:48:47.593Z,62.76
2018-02-25T23:51:16.073Z,62.41
2018-02-25T23:53:44.571Z,62.44
2018-02-25T23:56:12.930Z,62.47
2018-02-25T23:58:41.723Z,62.10
